Time;durP1;ratioP1;P1;durP2;ratioP2;P2;SDS_P1;SDS_P2;PMS_P1;PMS_P2;Temp;Humidity;BMP_temperature;BMP_pressure;BME280_temperature;BME280_humidity;BME280_pressure;Samples;Min_cycle;Max_cycle;Signal;HPM_P1;HPM_P2
2023/05/10 00:00:05;;;;;;;0.40;0.40;;;;;;;10.71;41.14;100490.69;5008388;28;20033;-65
2023/05/10 00:02:31;;;;;;;0.50;0.50;;;;;;;10.53;41.50;100483.88;5008753;28;20026;-65
2023/05/10 00:04:56;;;;;;;0.40;0.40;;;;;;;10.51;41.57;100490.84;5008470;28;20167;-65
2023/05/10 00:07:22;;;;;;;0.40;0.40;;;;;;;10.60;41.46;100498.56;5008322;28;20022;-66
2023/05/10 00:09:47;;;;;;;0.40;0.40;;;;;;;10.27;41.77;100475.34;5008394;28;20027;-66
2023/05/10 00:12:12;;;;;;;0.40;0.40;;;;;;;10.38;41.99;100496.03;5008161;28;20023;-64
2023/05/10 00:14:38;;;;;;;0.40;0.40;;;;;;;10.26;42.00;100490.94;4990948;28;20058;-64
2023/05/10 00:17:03;;;;;;;0.43;0.43;;;;;;;10.47;41.97;100486.50;4998805;23;20806;-67
2023/05/10 00:19:29;;;;;;;0.40;0.40;;;;;;;10.24;42.25;100482.31;5007082;23;20093;-66
2023/05/10 00:21:54;;;;;;;0.40;0.40;;;;;;;10.36;42.39;100481.38;4988586;28;20029;-64
2023/05/10 00:24:20;;;;;;;0.40;0.40;;;;;;;10.49;42.11;100487.38;4995531;23;20074;-64
2023/05/10 00:26:45;;;;;;;0.40;0.40;;;;;;;10.31;42.42;100476.22;4988596;28;20075;-65
2023/05/10 00:29:10;;;;;;;0.95;0.82;;;;;;;10.16;42.74;100480.63;4988753;28;20019;-65
2023/05/10 00:31:36;;;;;;;0.40;0.40;;;;;;;10.15;42.85;100484.09;4988570;28;20027;-64
2023/05/10 00:34:01;;;;;;;0.40;0.40;;;;;;;10.29;42.77;100476.22;4988547;28;20031;-65
2023/05/10 00:36:27;;;;;;;0.50;0.50;;;;;;;10.27;42.67;100470.16;4986986;28;20023;-65
2023/05/10 00:38:53;;;;;;;0.50;0.50;;;;;;;10.27;42.84;100470.16;4988548;28;20022;-65
2023/05/10 00:41:18;;;;;;;0.40;0.40;;;;;;;10.33;42.86;100479.66;4988335;28;20033;-65
2023/05/10 00:43:44;;;;;;;0.40;0.40;;;;;;;10.25;42.97;100476.25;4988417;28;20026;-66
2023/05/10 00:46:09;;;;;;;0.40;0.40;;;;;;;10.19;43.12;100466.78;4970709;28;20034;-64
2023/05/10 00:48:35;;;;;;;0.40;0.40;;;;;;;9.98;43.48;100468.63;4988330;28;20027;-65
2023/05/10 00:51:01;;;;;;;0.40;0.40;;;;;;;10.00;43.38;100466.03;4993375;23;20061;-65
2023/05/10 00:53:52;;;;;;;1.02;0.98;;;;;;;10.04;43.76;100472.91;5019260;23;20065;-65
2023/05/10 00:56:17;;;;;;;0.40;0.40;;;;;;;9.96;43.72;100465.16;4997317;23;20054;-66
2023/05/10 00:58:43;;;;;;;0.40;0.40;;;;;;;10.07;43.92;100462.50;4999791;28;20037;-65
2023/05/10 01:01:09;;;;;;;0.40;0.40;;;;;;;9.92;43.76;100468.63;5006344;28;20344;-66
2023/05/10 01:03:36;;;;;;;0.43;0.43;;;;;;;9.94;43.83;100468.59;5003790;28;20027;-67
2023/05/10 01:06:03;;;;;;;0.40;0.40;;;;;;;9.99;43.84;100444.41;4989551;28;20035;-67
2023/05/10 01:08:28;;;;;;;0.40;0.40;;;;;;;10.07;43.65;100466.81;4997932;28;20034;-67
2023/05/10 01:10:55;;;;;;;0.40;0.40;;;;;;;10.14;43.83;100463.34;4996114;28;20038;-68
2023/05/10 01:13:40;;;;;;;0.40;0.40;;;;;;;10.27;43.64;100466.72;5005446;28;20467;-66
2023/05/10 01:16:06;;;;;;;0.95;0.95;;;;;;;9.97;44.18;100461.69;5005715;28;20041;-66
2023/05/10 01:18:38;;;;;;;1.67;1.58;;;;;;;9.98;44.25;100458.25;5005533;28;20084;-66
2023/05/10 01:21:22;;;;;;;0.60;0.60;;;;;;;10.26;43.91;100452.00;4999648;28;20053;-65
2023/05/10 01:24:18;;;;;;;1.15;1.15;;;;;;;10.12;44.15;100452.97;5001715;28;20037;-66
2023/05/10 01:29:39;;;;;;;0.50;0.50;;;;;;;10.30;44.02;100456.34;4999393;28;20039;-65
2023/05/10 01:32:07;;;;;;;0.40;0.40;;;;;;;10.26;44.01;100459.78;4980982;28;20041;-65
2023/05/10 01:34:38;;;;;;;0.40;0.40;;;;;;;10.20;44.05;100452.06;4993350;28;20090;-66
2023/05/10 01:37:10;;;;;;;0.38;0.38;;;;;;;9.96;44.54;100447.00;5004513;28;20048;-66
2023/05/10 01:39:57;;;;;;;0.40;0.40;;;;;;;9.90;44.98;100458.25;5003871;28;20034;-66
2023/05/10 01:42:27;;;;;;;0.40;0.40;;;;;;;9.74;45.13;100444.53;4992756;28;20082;-67
2023/05/10 01:45:07;;;;;;;0.40;0.40;;;;;;;9.77;45.17;100446.22;4999712;28;20037;-66
2023/05/10 01:47:37;;;;;;;0.43;0.43;;;;;;;9.92;44.93;100447.88;5001103;28;20034;-67
2023/05/10 01:50:06;;;;;;;0.40;0.40;;;;;;;9.95;44.87;100436.66;5000167;28;20026;-66
2023/05/10 01:52:37;;;;;;;0.45;0.45;;;;;;;9.97;44.91;100450.47;4983865;28;20073;-66
2023/05/10 01:55:06;;;;;;;0.50;0.50;;;;;;;9.83;45.15;100443.59;4991253;28;20022;-66
2023/05/10 01:57:37;;;;;;;0.40;0.40;;;;;;;9.82;45.55;100443.63;4998888;28;20022;-66
2023/05/10 02:00:08;;;;;;;0.40;0.40;;;;;;;9.80;45.41;100446.22;4978837;28;20034;-66
2023/05/10 02:02:37;;;;;;;0.40;0.40;;;;;;;9.81;45.59;100439.31;4979366;28;20086;-67
2023/05/10 02:05:06;;;;;;;0.40;0.40;;;;;;;9.82;45.80;100441.91;5010212;23;20061;-65
2023/05/10 02:07:36;;;;;;;0.60;0.60;;;;;;;9.58;45.80;100424.72;5005187;23;20057;-66
2023/05/10 02:10:04;;;;;;;0.40;0.40;;;;;;;10.03;45.26;100435.72;4993700;28;20053;-66
2023/05/10 02:12:32;;;;;;;0.40;0.40;;;;;;;9.71;45.88;100444.53;5010996;23;20416;-64
2023/05/10 02:15:01;;;;;;;0.50;0.50;;;;;;;9.56;46.15;100437.66;5005672;28;20029;-64
2023/05/10 02:17:28;;;;;;;0.40;0.40;;;;;;;9.86;45.85;100441.00;5005985;28;20377;-64
2023/05/10 02:19:55;;;;;;;0.40;0.40;;;;;;;9.66;46.10;100434.16;4988714;28;20030;-65
2023/05/10 02:22:22;;;;;;;0.70;0.70;;;;;;;9.71;45.99;100430.72;5005708;28;20100;-64
2023/05/10 02:24:48;;;;;;;0.40;0.40;;;;;;;9.60;46.16;100434.19;5006008;28;20104;-64
2023/05/10 02:27:15;;;;;;;0.40;0.40;;;;;;;9.50;46.50;100424.75;5005880;28;20037;-64
2023/05/10 02:29:41;;;;;;;0.40;0.40;;;;;;;10.09;45.28;100428.78;4994456;23;20053;-65
2023/05/10 02:32:08;;;;;;;0.40;0.40;;;;;;;9.87;45.71;100419.38;4987126;28;20082;-63
2023/05/10 02:34:34;;;;;;;0.40;0.40;;;;;;;9.79;46.01;100429.78;4993216;28;20018;-67
2023/05/10 02:37:02;;;;;;;0.40;0.40;;;;;;;9.70;46.27;100426.38;4996663;28;20030;-66
2023/05/10 02:39:30;;;;;;;0.45;0.45;;;;;;;9.70;46.16;100416.00;4998570;28;20022;-65
2023/05/10 02:41:57;;;;;;;0.40;0.40;;;;;;;10.06;45.62;100405.44;4985903;28;20034;-66
2023/05/10 02:44:26;;;;;;;0.40;0.40;;;;;;;9.97;45.69;100425.38;4995151;28;20153;-66
2023/05/10 02:46:52;;;;;;;0.40;0.40;;;;;;;9.81;46.13;100419.41;4997258;28;20077;-67
2023/05/10 02:49:18;;;;;;;0.63;0.63;;;;;;;9.74;46.21;100413.41;4986345;28;20030;-66
2023/05/10 02:51:55;;;;;;;0.40;0.40;;;;;;;10.01;45.74;100415.84;4971273;28;20034;-67
2023/05/10 02:54:27;;;;;;;0.40;0.40;;;;;;;9.95;45.85;100406.41;4968213;28;20348;-65
2023/05/10 02:56:57;;;;;;;0.40;0.40;;;;;;;10.09;45.61;100413.22;4979485;28;20085;-66
2023/05/10 02:59:23;;;;;;;0.40;0.40;;;;;;;9.87;46.21;100414.19;4995472;28;20022;-66
2023/05/10 03:01:48;;;;;;;0.40;0.40;;;;;;;9.85;46.29;100423.72;4999323;28;20037;-65
2023/05/10 03:04:13;;;;;;;0.50;0.50;;;;;;;9.87;46.26;100411.59;4985433;28;20077;-66
2023/05/10 03:06:40;;;;;;;0.40;0.40;;;;;;;10.21;45.67;100409.69;4999305;28;20023;-67
2023/05/10 03:09:07;;;;;;;0.40;0.40;;;;;;;10.41;44.98;100415.56;4994420;28;20040;-67
2023/05/10 03:11:51;;;;;;;0.40;0.40;;;;;;;10.20;45.66;100415.72;4990703;28;20057;-68
2023/05/10 03:14:48;;;;;;;0.40;0.40;;;;;;;10.08;45.71;100420.13;5000897;28;20117;-67
2023/05/10 03:17:58;;;;;;;0.40;0.40;;;;;;;10.27;45.51;100418.28;5002253;23;20632;-64
2023/05/10 03:20:42;;;;;;;0.50;0.50;;;;;;;10.04;45.94;100398.56;4990559;23;20047;-64
2023/05/10 03:23:29;;;;;;;0.40;0.40;;;;;;;10.40;45.50;100411.25;4948332;29;20050;-63
2023/05/10 03:25:56;;;;;;;0.40;0.40;;;;;;;10.48;45.29;100407.78;4966276;29;20023;-66
2023/05/10 03:28:26;;;;;;;0.40;0.40;;;;;;;10.34;45.59;100407.84;4966530;29;20019;-64
2023/05/10 03:30:54;;;;;;;0.40;0.40;;;;;;;10.63;44.81;100405.06;4966440;29;20027;-64
2023/05/10 03:33:20;;;;;;;0.60;0.60;;;;;;;10.57;45.32;100415.50;4980182;23;20184;-63
2023/05/10 03:35:45;;;;;;;0.77;0.75;;;;;;;10.49;45.64;100412.97;4991329;28;20023;-64
2023/05/10 03:38:14;;;;;;;0.40;0.40;;;;;;;11.07;44.30;100407.22;4971762;28;20034;-63
2023/05/10 03:40:40;;;;;;;0.60;0.60;;;;;;;11.31;43.51;100407.84;5001315;28;20080;-64
2023/05/10 03:43:05;;;;;;;0.40;0.40;;;;;;;11.24;43.49;100407.06;4986513;28;20019;-63
2023/05/10 03:45:31;;;;;;;0.40;0.40;;;;;;;11.31;43.52;100405.25;4985235;28;20029;-63
2023/05/10 03:47:59;;;;;;;0.40;0.40;;;;;;;11.00;43.96;100397.78;4986028;28;20022;-63
2023/05/10 03:50:24;;;;;;;0.40;0.40;;;;;;;10.94;44.31;100403.94;4993460;28;20045;-64
2023/05/10 03:52:50;;;;;;;0.30;0.30;;;;;;;11.16;44.00;100408.88;5000728;28;20034;-62
2023/05/10 03:55:16;;;;;;;0.40;0.40;;;;;;;10.93;44.60;100407.38;5000157;28;20097;-64
2023/05/10 03:57:41;;;;;;;0.30;0.30;;;;;;;10.98;44.47;100407.31;4993677;28;20495;-64
2023/05/10 04:00:08;;;;;;;1.73;1.63;;;;;;;11.29;43.80;100409.63;4987087;28;20531;-63
2023/05/10 04:02:33;;;;;;;0.30;0.30;;;;;;;11.23;43.93;100399.28;4988566;28;20049;-63
2023/05/10 04:04:58;;;;;;;0.40;0.40;;;;;;;11.12;44.10;100402.84;4998216;28;20054;-64
2023/05/10 04:07:24;;;;;;;1.48;1.48;;;;;;;11.17;43.97;100391.56;5003834;23;20085;-65
2023/05/10 04:09:49;;;;;;;0.40;0.40;;;;;;;11.05;44.79;100406.41;4985409;28;20034;-65
2023/05/10 04:12:15;;;;;;;0.40;0.40;;;;;;;11.49;43.83;100409.38;4970493;28;20038;-66
2023/05/10 04:14:40;;;;;;;0.30;0.30;;;;;;;11.62;43.26;100393.63;4988991;28;20015;-63
2023/05/10 04:17:06;;;;;;;0.40;0.40;;;;;;;11.59;43.69;100407.53;4988803;28;20031;-65
2023/05/10 04:19:31;;;;;;;5.30;4.22;;;;;;;12.09;42.74;100412.06;4971267;28;20023;-66
2023/05/10 04:21:58;;;;;;;0.30;0.30;;;;;;;12.01;42.82;100406.94;4988534;28;20027;-65
2023/05/10 04:24:23;;;;;;;0.75;0.75;;;;;;;12.09;43.23;100404.25;5008496;23;20078;-65
2023/05/10 04:26:49;;;;;;;0.30;0.30;;;;;;;12.58;41.60;100408.72;4994433;23;20121;-67
2023/05/10 04:29:14;;;;;;;0.85;0.85;;;;;;;12.72;41.30;100417.16;4994170;28;20045;-67
2023/05/10 04:31:40;;;;;;;0.30;0.30;;;;;;;12.69;41.08;100388.56;5003576;28;20048;-67
2023/05/10 04:34:05;;;;;;;5.18;1.15;;;;;;;12.68;41.28;100393.81;5005534;28;20050;-66
2023/05/10 04:36:32;;;;;;;0.30;0.30;;;;;;;12.60;41.61;100397.38;5001095;28;20030;-67
2023/05/10 04:38:58;;;;;;;0.63;0.63;;;;;;;13.16;40.62;100405.09;4999167;28;20057;-67
2023/05/10 04:41:24;;;;;;;0.38;0.38;;;;;;;13.08;40.79;100389.63;5001328;28;20046;-66
2023/05/10 04:43:50;;;;;;;0.32;0.32;;;;;;;13.17;41.13;100401.59;5006424;28;20026;-66
2023/05/10 04:46:15;;;;;;;0.30;0.30;;;;;;;13.66;39.71;100389.34;5000900;28;20033;-66
2023/05/10 04:48:40;;;;;;;0.30;0.30;;;;;;;13.98;38.88;100395.59;5001460;28;20054;-66
2023/05/10 04:51:06;;;;;;;0.30;0.30;;;;;;;13.86;38.88;100401.97;5003998;28;20026;-66
2023/05/10 04:53:32;;;;;;;0.30;0.30;;;;;;;14.02;38.50;100393.78;5003357;28;20026;-66
2023/05/10 04:55:57;;;;;;;2.40;2.25;;;;;;;14.10;38.28;100394.47;5004537;28;20042;-66
2023/05/10 04:58:22;;;;;;;0.30;0.30;;;;;;;13.98;38.76;100384.28;4996013;28;20129;-67
2023/05/10 05:00:48;;;;;;;0.30;0.30;;;;;;;14.04;38.83;100391.97;5003075;28;20054;-66
2023/05/10 05:03:13;;;;;;;1.48;1.38;;;;;;;14.40;37.91;100390.28;5000807;28;20078;-66
2023/05/10 05:05:39;;;;;;;2.72;2.53;;;;;;;14.22;38.59;100382.88;4998348;28;20022;-65
2023/05/10 05:08:05;;;;;;;0.30;0.30;;;;;;;14.60;37.37;100380.19;4989757;28;20102;-66
2023/05/10 05:10:30;;;;;;;0.30;0.30;;;;;;;14.33;38.27;100382.59;4987262;28;20101;-67
2023/05/10 05:12:56;;;;;;;0.57;0.57;;;;;;;14.77;37.94;100380.66;4995936;28;20536;-66
2023/05/10 05:15:21;;;;;;;0.30;0.30;;;;;;;15.49;36.50;100371.72;5000227;28;20450;-66
2023/05/10 05:17:47;;;;;;;0.30;0.30;;;;;;;15.52;35.53;100383.84;4989068;28;20054;-64
2023/05/10 05:20:12;;;;;;;0.30;0.30;;;;;;;15.02;36.74;100393.94;4992320;28;20061;-67
2023/05/10 05:22:38;;;;;;;0.43;0.43;;;;;;;15.54;35.66;100390.78;4999244;28;20098;-66
2023/05/10 05:25:04;;;;;;;0.57;0.57;;;;;;;15.31;35.75;100383.56;4989733;28;20030;-66
2023/05/10 05:27:30;;;;;;;0.75;0.63;;;;;;;15.18;35.94;100385.66;4987423;28;20054;-67
2023/05/10 05:29:57;;;;;;;0.40;0.40;;;;;;;14.95;36.80;100392.41;4988914;28;20026;-65
2023/05/10 05:32:23;;;;;;;0.32;0.32;;;;;;;14.80;36.87;100391.06;5000126;28;20101;-66
2023/05/10 05:34:49;;;;;;;0.30;0.30;;;;;;;14.80;36.75;100383.22;4986792;28;20030;-64
2023/05/10 05:37:15;;;;;;;0.30;0.30;;;;;;;14.66;37.79;100394.88;4997295;28;20023;-64
2023/05/10 05:39:42;;;;;;;0.30;0.30;;;;;;;14.91;37.10;100406.44;4995226;28;20042;-66
2023/05/10 05:42:08;;;;;;;0.30;0.30;;;;;;;14.86;38.00;100391.75;5004007;28;20026;-64
2023/05/10 05:44:33;;;;;;;0.40;0.40;;;;;;;15.32;36.50;100401.84;5006722;28;20223;-64
2023/05/10 05:46:58;;;;;;;0.30;0.30;;;;;;;15.27;37.06;100395.88;5006473;28;20022;-66
2023/05/10 05:49:24;;;;;;;0.30;0.30;;;;;;;15.59;37.05;100394.09;5006720;28;20041;-65
2023/05/10 05:51:50;;;;;;;0.30;0.30;;;;;;;16.07;35.95;100398.81;5006426;28;20022;-64
2023/05/10 05:54:15;;;;;;;0.40;0.40;;;;;;;16.36;34.91;100394.38;5006290;28;20057;-65
2023/05/10 05:56:41;;;;;;;0.30;0.30;;;;;;;16.06;36.04;100394.47;5006488;28;20030;-65
2023/05/10 05:59:06;;;;;;;0.30;0.30;;;;;;;16.49;34.21;100402.69;5006481;28;20033;-65
2023/05/10 06:01:31;;;;;;;0.30;0.30;;;;;;;16.30;34.56;100399.81;5006563;28;20543;-65
2023/05/10 06:03:57;;;;;;;0.40;0.40;;;;;;;15.94;35.31;100400.94;5006457;28;20018;-64
2023/05/10 06:06:22;;;;;;;1.15;1.05;;;;;;;16.07;35.02;100399.66;5006131;28;20479;-64
2023/05/10 06:08:48;;;;;;;0.30;0.30;;;;;;;15.73;36.28;100414.59;5006295;28;20025;-65
2023/05/10 06:11:13;;;;;;;1.00;1.00;;;;;;;15.97;36.77;100403.44;5006620;28;20026;-64
2023/05/10 06:13:38;;;;;;;0.40;0.40;;;;;;;16.50;34.84;100396.56;5006322;28;20051;-64
2023/05/10 06:16:04;;;;;;;1.15;0.88;;;;;;;16.62;35.02;100404.91;5006321;28;20085;-65
2023/05/10 06:18:30;;;;;;;0.30;0.30;;;;;;;16.91;34.76;100392.56;5006103;28;20026;-64
2023/05/10 06:20:55;;;;;;;0.30;0.30;;;;;;;17.10;34.61;100384.91;5006133;28;20023;-65
2023/05/10 06:23:22;;;;;;;0.57;0.57;;;;;;;17.50;34.60;100390.47;5006263;28;20014;-64
2023/05/10 06:25:47;;;;;;;0.25;0.25;;;;;;;17.79;32.60;100390.25;4972767;28;20022;-65
2023/05/10 06:28:12;;;;;;;2.45;2.35;;;;;;;17.63;32.99;100403.13;5005677;28;20669;-65
2023/05/10 06:30:38;;;;;;;0.50;0.50;;;;;;;17.48;33.58;100394.91;5005998;28;20124;-64
2023/05/10 06:33:03;;;;;;;0.50;0.50;;;;;;;17.78;32.88;100396.44;5006023;28;20517;-65
2023/05/10 06:35:29;;;;;;;0.20;0.20;;;;;;;17.50;33.00;100395.72;5005923;28;20030;-65
2023/05/10 06:37:54;;;;;;;0.30;0.30;;;;;;;17.51;32.97;100393.94;5005634;28;20026;-64
2023/05/10 06:40:20;;;;;;;0.25;0.25;;;;;;;17.78;32.21;100401.69;5005933;28;20026;-64
2023/05/10 06:42:46;;;;;;;0.30;0.30;;;;;;;17.05;33.32;100406.03;5005796;28;20057;-66
2023/05/10 06:45:12;;;;;;;0.73;0.73;;;;;;;17.27;33.31;100394.78;5005976;28;20018;-65
2023/05/10 06:47:37;;;;;;;0.55;0.55;;;;;;;17.41;33.16;100404.78;5005683;28;20026;-64
2023/05/10 06:50:03;;;;;;;0.20;0.20;;;;;;;17.34;33.29;100404.16;5005867;28;20081;-65
2023/05/10 06:52:28;;;;;;;0.30;0.30;;;;;;;17.84;32.11;100388.31;5005510;28;20026;-64
2023/05/10 06:54:54;;;;;;;0.35;0.35;;;;;;;17.53;32.11;100408.72;5005665;28;20053;-65
2023/05/10 06:57:20;;;;;;;0.20;0.20;;;;;;;16.97;33.42;100397.59;5005584;28;20383;-65
2023/05/10 06:59:46;;;;;;;0.73;0.73;;;;;;;17.00;33.60;100402.72;5005758;28;20222;-65
2023/05/10 07:02:11;;;;;;;0.30;0.30;;;;;;;17.44;32.48;100393.31;5005862;28;20362;-65
2023/05/10 07:04:37;;;;;;;0.60;0.60;;;;;;;17.06;33.30;100407.75;5005631;28;20018;-64
2023/05/10 07:07:02;;;;;;;2.55;2.35;;;;;;;16.95;33.79;100395.00;5005293;28;20038;-65
2023/05/10 07:09:28;;;;;;;0.30;0.30;;;;;;;17.27;33.56;100409.69;4988179;28;20072;-65
2023/05/10 07:11:53;;;;;;;0.20;0.20;;;;;;;17.53;33.02;100390.34;5005598;28;20037;-65
2023/05/10 07:14:18;;;;;;;0.30;0.30;;;;;;;17.70;32.73;100394.06;5005389;28;20027;-65
2023/05/10 07:16:44;;;;;;;0.82;0.77;;;;;;;18.24;31.63;100385.91;5005375;28;20057;-65
2023/05/10 07:19:10;;;;;;;0.50;0.50;;;;;;;18.18;31.36;100383.50;5005436;28;20023;-64
2023/05/10 07:21:36;;;;;;;0.30;0.30;;;;;;;17.94;31.91;100387.03;4987529;28;20026;-65
2023/05/10 07:24:01;;;;;;;0.20;0.20;;;;;;;17.91;31.99;100384.50;4987820;28;20022;-65
2023/05/10 07:26:27;;;;;;;3.40;2.60;;;;;;;17.71;32.30;100391.44;5005236;28;20042;-65
2023/05/10 07:28:53;;;;;;;0.70;0.70;;;;;;;17.87;32.17;100387.31;4988381;28;20054;-65
2023/05/10 07:31:19;;;;;;;0.30;0.30;;;;;;;17.98;31.95;100393.00;5005215;28;20038;-66
2023/05/10 07:33:44;;;;;;;0.20;0.20;;;;;;;17.95;32.39;100388.75;5005336;28;20018;-64
2023/05/10 07:36:09;;;;;;;0.57;0.57;;;;;;;18.30;31.93;100385.63;5005427;28;20027;-65
2023/05/10 07:38:35;;;;;;;0.20;0.20;;;;;;;18.59;30.94;100393.22;5005120;28;20026;-65
2023/05/10 07:41:01;;;;;;;0.30;0.30;;;;;;;18.51;31.41;100396.19;5005532;28;20019;-65
2023/05/10 07:43:26;;;;;;;0.30;0.30;;;;;;;18.38;32.03;100387.09;5005402;28;20022;-64
2023/05/10 07:45:52;;;;;;;0.20;0.20;;;;;;;19.54;29.60;100386.44;5005922;28;20528;-65
2023/05/10 07:48:17;;;;;;;0.20;0.20;;;;;;;19.01;30.14;100395.84;5026441;23;20058;-66
2023/05/10 07:50:42;;;;;;;0.45;0.45;;;;;;;18.71;30.71;100376.06;5008976;28;20097;-66
2023/05/10 07:53:08;;;;;;;0.40;0.40;;;;;;;18.57;30.88;100380.13;5016262;23;20054;-64
2023/05/10 07:55:33;;;;;;;0.40;0.40;;;;;;;18.49;31.55;100384.88;4991612;28;20057;-64
2023/05/10 07:58:00;;;;;;;0.20;0.20;;;;;;;18.70;31.04;100364.69;5008843;28;20141;-63
2023/05/10 08:00:26;;;;;;;1.88;1.50;;;;;;;18.61;31.25;100382.63;5008815;28;20029;-65
2023/05/10 08:02:51;;;;;;;0.30;0.30;;;;;;;18.98;30.61;100388.09;5008837;28;20018;-65
2023/05/10 08:05:17;;;;;;;0.20;0.20;;;;;;;18.83;30.65;100374.69;4991295;28;20030;-65
2023/05/10 08:07:42;;;;;;;0.52;0.52;;;;;;;19.16;30.79;100376.75;5008416;28;20022;-63
2023/05/10 08:10:09;;;;;;;0.30;0.30;;;;;;;19.44;30.29;100374.66;5008828;28;20065;-64
2023/05/10 08:12:34;;;;;;;0.77;0.75;;;;;;;19.44;30.17;100378.13;5008535;28;20038;-64
2023/05/10 08:14:59;;;;;;;0.28;0.28;;;;;;;19.73;29.56;100379.47;4991054;28;20035;-65
2023/05/10 08:17:25;;;;;;;0.73;0.73;;;;;;;19.71;29.60;100387.44;5008385;28;20034;-64
2023/05/10 08:19:50;;;;;;;0.20;0.20;;;;;;;20.06;29.27;100381.44;5008798;28;20050;-64
2023/05/10 08:22:16;;;;;;;0.20;0.20;;;;;;;20.00;28.31;100386.97;5008309;28;20057;-64
2023/05/10 08:24:41;;;;;;;0.30;0.30;;;;;;;19.81;28.48;100370.25;5008432;28;20102;-64
2023/05/10 08:27:08;;;;;;;0.20;0.20;;;;;;;19.51;29.00;100370.78;5008308;28;20404;-64
2023/05/10 08:29:33;;;;;;;0.43;0.43;;;;;;;19.92;28.92;100379.44;5008442;28;20049;-64
2023/05/10 08:32:00;;;;;;;0.20;0.20;;;;;;;20.01;28.60;100384.25;5008265;28;20037;-64
2023/05/10 08:34:26;;;;;;;0.30;0.30;;;;;;;20.03;28.84;100382.41;4990667;28;20117;-66
2023/05/10 08:36:51;;;;;;;0.20;0.20;;;;;;;20.35;27.91;100376.47;5007850;28;20022;-64
2023/05/10 08:39:17;;;;;;;1.58;1.48;;;;;;;20.70;27.67;100387.97;5007930;28;20052;-64
2023/05/10 08:41:44;;;;;;;1.23;0.47;;;;;;;20.70;27.62;100378.28;5008140;28;20076;-66
2023/05/10 08:44:10;;;;;;;0.20;0.20;;;;;;;20.91;27.14;100386.88;5008186;28;20022;-66
2023/05/10 08:46:39;;;;;;;0.40;0.40;;;;;;;21.08;26.91;100381.63;5007888;28;20037;-65
2023/05/10 08:49:07;;;;;;;0.30;0.30;;;;;;;21.15;26.44;100386.50;5008142;28;20030;-65
2023/05/10 08:51:36;;;;;;;0.30;0.30;;;;;;;20.97;26.92;100376.94;4990370;28;20109;-66
2023/05/10 08:54:03;;;;;;;0.20;0.20;;;;;;;20.97;26.64;100398.03;5007690;28;20038;-65
2023/05/10 08:56:29;;;;;;;1.23;1.23;;;;;;;20.64;27.44;100389.16;5007610;28;20045;-64
2023/05/10 08:58:55;;;;;;;0.40;0.40;;;;;;;20.90;27.60;100392.19;5006777;28;20029;-65
2023/05/10 09:01:21;;;;;;;0.30;0.30;;;;;;;21.32;27.10;100391.81;5006494;28;20022;-65
2023/05/10 09:03:48;;;;;;;0.20;0.20;;;;;;;21.70;26.23;100401.22;5007890;28;20045;-66
2023/05/10 09:06:13;;;;;;;0.20;0.20;;;;;;;21.73;26.04;100395.75;5007763;28;20037;-65
2023/05/10 09:08:41;;;;;;;0.20;0.20;;;;;;;21.62;26.41;100402.50;5006220;28;20026;-66
2023/05/10 09:11:08;;;;;;;0.20;0.20;;;;;;;22.25;26.18;100396.41;5007689;28;20026;-65
2023/05/10 09:13:35;;;;;;;2.80;1.63;;;;;;;22.82;24.54;100394.88;5007511;28;20030;-66
2023/05/10 09:16:01;;;;;;;0.20;0.20;;;;;;;22.63;24.87;100398.63;5007591;28;20057;-65
2023/05/10 09:18:26;;;;;;;0.75;0.75;;;;;;;22.10;25.49;100392.84;5007533;28;20027;-65
2023/05/10 09:20:52;;;;;;;0.20;0.20;;;;;;;22.06;25.79;100402.75;5006232;28;20097;-66
2023/05/10 09:23:17;;;;;;;0.20;0.20;;;;;;;22.11;25.48;100399.84;5007232;28;20029;-65
2023/05/10 09:25:42;;;;;;;0.20;0.20;;;;;;;22.09;25.86;100391.16;5007427;28;20026;-66
2023/05/10 09:28:09;;;;;;;0.20;0.20;;;;;;;22.21;25.33;100410.72;5007321;28;20034;-66
2023/05/10 09:30:35;;;;;;;0.50;0.50;;;;;;;21.84;25.94;100397.84;5007604;28;20019;-67
2023/05/10 09:33:01;;;;;;;1.38;1.27;;;;;;;21.58;26.01;100400.09;5007102;28;20481;-66
2023/05/10 09:35:29;;;;;;;0.40;0.40;;;;;;;22.03;26.09;100397.63;5007137;28;20022;-66
2023/05/10 09:38:00;;;;;;;0.20;0.20;;;;;;;21.84;25.98;100392.56;5007027;28;20030;-67
2023/05/10 09:40:28;;;;;;;0.32;0.32;;;;;;;21.83;26.06;100396.13;5007315;28;20026;-66
2023/05/10 09:43:01;;;;;;;0.25;0.25;;;;;;;21.77;26.40;100386.75;5006971;28;20045;-66
2023/05/10 09:45:29;;;;;;;0.20;0.20;;;;;;;22.06;25.81;100401.91;5007159;28;20081;-66
2023/05/10 09:47:55;;;;;;;0.20;0.20;;;;;;;22.17;25.62;100391.56;5006788;28;20093;-66
2023/05/10 09:50:22;;;;;;;0.20;0.20;;;;;;;22.42;25.04;100392.78;5005551;28;20026;-66
2023/05/10 09:52:58;;;;;;;0.63;0.63;;;;;;;22.58;24.62;100407.72;5006497;28;20061;-66
2023/05/10 09:55:26;;;;;;;0.20;0.20;;;;;;;22.20;25.07;100401.09;5006925;28;20027;-67
2023/05/10 09:58:01;;;;;;;0.30;0.30;;;;;;;22.68;24.00;100390.41;5006675;28;20114;-67
2023/05/10 10:00:27;;;;;;;0.20;0.20;;;;;;;22.76;24.15;100401.38;5006868;28;20041;-66
2023/05/10 10:02:58;;;;;;;0.45;0.45;;;;;;;22.91;25.28;100377.56;5006625;28;20026;-66
2023/05/10 10:05:31;;;;;;;0.27;0.27;;;;;;;24.24;24.31;100399.31;5006663;28;20050;-66
2023/05/10 10:07:58;;;;;;;0.20;0.20;;;;;;;24.49;22.30;100373.75;5006178;28;20033;-68
2023/05/10 10:10:27;;;;;;;0.20;0.20;;;;;;;24.19;22.27;100396.09;5006340;28;20030;-68
2023/05/10 10:12:54;;;;;;;0.55;0.55;;;;;;;23.49;22.82;100372.28;5006428;28;20080;-65
2023/05/10 10:15:22;;;;;;;0.30;0.30;;;;;;;22.83;23.15;100379.84;5006556;28;20093;-65
2023/05/10 10:17:49;;;;;;;0.40;0.40;;;;;;;22.47;24.12;100385.44;4988945;28;20036;-66
2023/05/10 10:20:15;;;;;;;0.20;0.20;;;;;;;22.77;24.42;100381.91;5006707;28;20035;-69
2023/05/10 10:22:43;;;;;;;0.20;0.20;;;;;;;23.12;23.69;100378.06;4988707;28;20026;-67
2023/05/10 10:25:10;;;;;;;0.20;0.20;;;;;;;23.12;23.68;100378.06;5006346;28;20036;-66
2023/05/10 10:27:51;;;;;;;0.40;0.40;;;;;;;23.23;23.66;100374.72;5006127;28;20061;-66
2023/05/10 10:30:42;;;;;;;1.10;1.10;;;;;;;22.96;24.54;100380.78;5006310;28;20441;-67
2023/05/10 10:33:29;;;;;;;0.10;0.10;;;;;;;23.59;23.07;100372.53;5006080;28;20057;-66
2023/05/10 10:35:58;;;;;;;0.85;0.85;;;;;;;23.27;23.03;100388.63;5006287;28;20035;-67
2023/05/10 10:38:24;;;;;;;0.20;0.20;;;;;;;22.92;23.74;100376.63;5006056;28;20084;-66
2023/05/10 10:41:21;;;;;;;0.20;0.20;;;;;;;22.82;24.00;100384.28;5006049;28;20482;-68
2023/05/10 10:43:47;;;;;;;0.20;0.20;;;;;;;23.13;23.69;100370.97;5005261;28;20056;-66
2023/05/10 10:46:15;;;;;;;0.20;0.20;;;;;;;23.32;23.64;100372.44;5006040;28;20441;-66
2023/05/10 10:48:46;;;;;;;0.20;0.20;;;;;;;23.30;23.05;100375.19;5005880;28;20053;-66
2023/05/10 10:51:13;;;;;;;0.30;0.30;;;;;;;22.77;23.85;100376.63;5005807;28;20467;-65
2023/05/10 10:53:41;;;;;;;0.68;0.68;;;;;;;22.77;23.49;100373.13;5005432;28;20046;-67
2023/05/10 10:56:11;;;;;;;0.20;0.20;;;;;;;22.70;24.40;100370.00;5005945;28;20486;-66
2023/05/10 10:58:38;;;;;;;0.20;0.20;;;;;;;22.89;22.95;100339.78;5005813;28;20064;-66
2023/05/10 11:01:35;;;;;;;0.20;0.20;;;;;;;22.21;23.64;100371.06;5005944;28;20112;-68
2023/05/10 11:04:04;;;;;;;0.20;0.20;;;;;;;21.55;24.58;100357.06;5005383;28;20463;-67
2023/05/10 11:06:34;;;;;;;0.20;0.20;;;;;;;20.96;25.55;100354.13;5005531;28;20081;-67
2023/05/10 11:09:06;;;;;;;0.20;0.20;;;;;;;20.98;24.91;100353.09;5005269;28;20022;-68
2023/05/10 11:11:31;;;;;;;0.45;0.45;;;;;;;20.70;25.58;100354.53;5005576;28;20022;-67
2023/05/10 11:14:03;;;;;;;0.20;0.20;;;;;;;20.93;25.25;100357.75;5005524;28;20451;-68
2023/05/10 11:16:41;;;;;;;1.45;0.88;;;;;;;20.74;25.95;100357.84;5005672;28;20057;-66
2023/05/10 11:19:09;;;;;;;0.20;0.20;;;;;;;20.93;25.40;100356.00;5005668;28;20450;-65
2023/05/10 11:22:02;;;;;;;0.20;0.20;;;;;;;20.99;24.94;100354.78;5007257;28;20022;-66
2023/05/10 11:24:28;;;;;;;1.88;1.50;;;;;;;20.99;24.80;100365.34;5009726;28;20022;-69
2023/05/10 11:26:53;;;;;;;0.20;0.20;;;;;;;20.74;25.05;100363.97;5022354;23;20078;-64
2023/05/10 11:29:19;;;;;;;0.20;0.20;;;;;;;20.56;24.62;100364.00;5009677;28;20030;-64
2023/05/10 11:31:46;;;;;;;0.28;0.28;;;;;;;20.08;25.11;100358.47;5009340;28;20022;-63